Martelle, Iowa
Current Conditions -  °F | °C
As of 4:35 AM on Monday 26 Jan 2015 (Local Time) from KMXO Reporting Station
Overcast Overcast  
Wind Chill: 21°   Ceiling: 2100
Heat Index: 21°   Visibility: 10mi
Dew Point: 16°   Wind: 3mph
Humidity: 80%   Direction: 200°SSW
Pressure: 29.99"   Gusts: NA
Location:  42.02°N, 91.36°W
Report Text: KMXO 261035Z AUTO 20003KT 10SM OVC021 M06/M09 A2999 RMK AO2
Loading
Personal Weather Stations






























Interactive Weather Map New forecast layout! Learn more

10-Day Weather Forecast

Advertisements
Track Severe Weather on mobile